createdAt,value
2022-09-10T00:00:59.238Z,94.92
2022-09-10T00:04:08.071Z,94.73
2022-09-10T00:07:11.601Z,94.98
2022-09-10T00:10:14.770Z,94.88
2022-09-10T00:13:20.918Z,95.17
2022-09-10T00:16:23.976Z,95.73
2022-09-10T00:19:27.877Z,95.38
2022-09-10T00:22:30.390Z,95.92
2022-09-10T00:25:33.081Z,95.85
2022-09-10T00:28:35.788Z,95.71
2022-09-10T00:31:39.522Z,96.29
2022-09-10T00:34:42.322Z,96.16
2022-09-10T00:37:46.109Z,97.13
2022-09-10T00:40:48.999Z,97.20
2022-09-10T00:43:53.365Z,97.26
2022-09-10T00:46:56.016Z,97.25
2022-09-10T00:50:02.662Z,97.76
2022-09-10T00:53:07.762Z,97.59
2022-09-10T00:56:10.432Z,97.24
2022-09-10T00:59:14.090Z,97.70
2022-09-10T01:02:16.987Z,97.05
2022-09-10T01:05:19.825Z,97.37
2022-09-10T01:08:22.845Z,96.64
2022-09-10T01:11:39.050Z,96.84
2022-09-10T01:14:52.458Z,96.67
2022-09-10T01:18:02.946Z,96.59
2022-09-10T01:21:10.446Z,96.44
2022-09-10T01:24:32.466Z,95.83
2022-09-10T01:27:39.387Z,95.37
2022-09-10T01:30:43.991Z,95.56
2022-09-10T01:33:49.513Z,95.07
2022-09-10T01:36:54.366Z,94.95
2022-09-10T01:39:59.390Z,94.58
2022-09-10T01:43:05.711Z,94.73
2022-09-10T01:46:17.963Z,94.40
2022-09-10T01:49:27.843Z,95.55
2022-09-10T01:52:36.512Z,95.89
2022-09-10T01:55:46.223Z,96.38
2022-09-10T01:58:49.134Z,96.65
2022-09-10T02:02:03.354Z,97.53
2022-09-10T02:05:07.866Z,98.28
2022-09-10T02:08:14.589Z,99.23
2022-09-10T02:11:18.169Z,99.68
2022-09-10T02:14:24.826Z,100.00
2022-09-10T02:17:58.334Z,100.00
2022-09-10T02:21:03.987Z,100.00
2022-09-10T02:24:09.550Z,100.00
2022-09-10T02:27:12.742Z,100.00
2022-09-10T02:30:16.355Z,100.00
2022-09-10T02:33:19.126Z,100.00
2022-09-10T02:36:25.483Z,100.00
2022-09-10T02:39:28.445Z,100.00
2022-09-10T02:42:31.244Z,100.00
2022-09-10T02:45:33.917Z,100.00
2022-09-10T02:48:36.768Z,100.00
2022-09-10T02:51:41.259Z,100.00
2022-09-10T02:54:44.296Z,100.00
2022-09-10T02:57:47.214Z,100.00
2022-09-10T03:00:50.230Z,100.00
2022-09-10T03:03:54.486Z,100.00
2022-09-10T03:06:59.508Z,100.00
2022-09-10T03:10:02.481Z,100.00
2022-09-10T03:13:05.740Z,100.00
2022-09-10T03:16:09.755Z,100.00
2022-09-10T03:19:13.557Z,100.00
2022-09-10T03:22:16.242Z,100.00
2022-09-10T03:25:19.459Z,100.00
2022-09-10T03:28:23.935Z,100.00
2022-09-10T03:31:26.889Z,100.00
2022-09-10T03:34:29.775Z,100.00
2022-09-10T03:37:32.394Z,100.00
2022-09-10T03:40:35.164Z,100.00
2022-09-10T03:43:37.779Z,100.00
2022-09-10T03:46:44.984Z,100.00
2022-09-10T03:49:50.367Z,100.00
2022-09-10T03:52:52.953Z,100.00
2022-09-10T03:55:55.753Z,100.00
2022-09-10T03:58:58.454Z,100.00
2022-09-10T04:02:02.857Z,100.00
2022-09-10T04:05:09.134Z,100.00
2022-09-10T04:08:14.189Z,100.00
2022-09-10T04:11:17.086Z,100.00
2022-09-10T04:14:19.859Z,100.00
2022-09-10T04:17:24.844Z,100.00
2022-09-10T04:20:31.410Z,100.00
2022-09-10T04:23:42.798Z,100.00
2022-09-10T04:26:46.177Z,100.00
2022-09-10T04:29:51.608Z,100.00
2022-09-10T04:32:54.261Z,100.00
2022-09-10T04:35:59.986Z,100.00
2022-09-10T04:39:02.961Z,100.00
2022-09-10T04:42:07.863Z,100.00
2022-09-10T04:45:13.052Z,100.00
2022-09-10T04:48:17.678Z,100.00
2022-09-10T04:51:20.324Z,100.00
2022-09-10T04:54:25.351Z,100.00
2022-09-10T04:57:28.353Z,100.00
2022-09-10T05:00:30.870Z,100.00
2022-09-10T05:03:33.953Z,100.00
2022-09-10T05:06:36.886Z,100.00
2022-09-10T05:09:41.009Z,100.00
2022-09-10T05:12:43.648Z,100.00
2022-09-10T05:15:47.453Z,100.00
2022-09-10T05:18:52.520Z,100.00
2022-09-10T05:21:55.255Z,100.00
2022-09-10T05:24:58.164Z,100.00
2022-09-10T05:28:01.036Z,100.00
2022-09-10T05:31:03.686Z,100.00
2022-09-10T05:34:07.801Z,100.00
2022-09-10T05:37:11.458Z,100.00
2022-09-10T05:40:15.446Z,100.00
2022-09-10T05:43:18.534Z,100.00
2022-09-10T05:46:21.702Z,100.00
2022-09-10T05:49:27.539Z,100.00
2022-09-10T05:52:32.268Z,100.00
2022-09-10T05:55:38.329Z,100.00
2022-09-10T05:58:44.741Z,100.00
2022-09-10T06:01:50.962Z,100.00
2022-09-10T06:04:54.750Z,100.00
2022-09-10T06:07:58.384Z,100.00
2022-09-10T06:11:04.526Z,100.00
2022-09-10T06:14:14.401Z,100.00
2022-09-10T06:17:17.519Z,100.00
2022-09-10T06:20:20.401Z,100.00
2022-09-10T06:23:26.044Z,100.00
2022-09-10T06:26:28.608Z,100.00
2022-09-10T06:29:36.060Z,100.00
2022-09-10T06:32:39.383Z,100.00
2022-09-10T06:35:44.115Z,100.00
2022-09-10T06:38:49.038Z,100.00
2022-09-10T06:41:53.161Z,100.00
2022-09-10T06:45:17.685Z,100.00
2022-09-10T06:48:47.630Z,100.00
2022-09-10T06:51:51.622Z,100.00
2022-09-10T06:54:54.452Z,100.00
2022-09-10T06:58:09.088Z,100.00
2022-09-10T07:01:15.413Z,100.00
2022-09-10T07:04:21.492Z,100.00
2022-09-10T07:07:24.536Z,100.00
2022-09-10T07:10:27.795Z,100.00
2022-09-10T07:13:31.271Z,100.00
2022-09-10T07:16:35.057Z,100.00
2022-09-10T07:19:37.847Z,100.00
2022-09-10T07:22:48.580Z,100.00
2022-09-10T07:25:55.659Z,100.00
2022-09-10T07:29:12.354Z,100.00
2022-09-10T07:32:15.249Z,100.00
2022-09-10T07:35:18.038Z,100.00
2022-09-10T07:38:22.203Z,100.00
2022-09-10T07:41:27.611Z,100.00
2022-09-10T07:44:30.430Z,100.00
2022-09-10T07:47:36.780Z,99.93
2022-09-10T07:50:40.608Z,99.70
2022-09-10T07:53:50.341Z,98.71
2022-09-10T07:56:55.710Z,98.36
2022-09-10T08:00:00.132Z,98.86
2022-09-10T08:03:05.706Z,98.55
2022-09-10T08:06:09.611Z,98.22
2022-09-10T08:09:17.201Z,97.05
2022-09-10T08:12:25.145Z,96.29
2022-09-10T08:15:35.552Z,95.96
2022-09-10T08:18:38.540Z,95.71
2022-09-10T08:21:41.609Z,95.76
2022-09-10T08:24:47.310Z,95.17
2022-09-10T08:27:50.243Z,94.49
2022-09-10T08:30:58.642Z,94.72
2022-09-10T08:34:01.739Z,94.13
2022-09-10T08:37:04.754Z,92.96
2022-09-10T08:40:11.390Z,92.47
2022-09-10T08:43:15.205Z,92.74
2022-09-10T08:46:21.742Z,92.88
2022-09-10T08:49:29.974Z,91.93
2022-09-10T08:52:37.768Z,91.18
2022-09-10T08:55:45.994Z,90.71
2022-09-10T08:58:54.244Z,90.29
2022-09-10T09:01:59.898Z,90.21
2022-09-10T09:05:05.867Z,88.99
2022-09-10T09:08:11.758Z,88.12
2022-09-10T09:11:16.976Z,86.96
2022-09-10T09:14:25.662Z,87.34
2022-09-10T09:17:38.003Z,86.06
2022-09-10T09:20:45.739Z,86.26
2022-09-10T09:24:12.119Z,85.77
2022-09-10T09:27:19.583Z,84.81
2022-09-10T09:30:24.280Z,84.35
2022-09-10T09:33:29.552Z,83.37
2022-09-10T09:36:37.143Z,83.70
2022-09-10T09:39:42.862Z,83.17
2022-09-10T09:42:48.417Z,82.88
2022-09-10T09:45:53.552Z,81.87
2022-09-10T09:48:57.942Z,82.15
2022-09-10T09:52:02.989Z,81.58
2022-09-10T09:55:15.247Z,81.46
2022-09-10T09:58:29.229Z,81.70
2022-09-10T10:01:32.783Z,81.17
2022-09-10T10:04:40.167Z,81.02
2022-09-10T10:07:47.920Z,80.38
2022-09-10T10:10:52.044Z,80.19
2022-09-10T10:14:11.466Z,79.71
2022-09-10T10:17:32.421Z,78.29
2022-09-10T10:20:36.261Z,76.75
2022-09-10T10:23:39.072Z,76.15
2022-09-10T10:26:43.550Z,75.42
2022-09-10T10:30:01.688Z,74.28
2022-09-10T10:33:04.418Z,74.16
2022-09-10T10:36:14.684Z,73.79
2022-09-10T10:39:23.801Z,72.86
2022-09-10T10:42:29.820Z,72.73
2022-09-10T10:45:42.040Z,72.57
2022-09-10T10:49:03.587Z,71.32
2022-09-10T10:52:18.720Z,70.39
2022-09-10T10:55:23.812Z,70.43
2022-09-10T10:58:39.133Z,69.69
2022-09-10T11:01:45.424Z,70.45
2022-09-10T11:04:59.331Z,69.84
2022-09-10T11:08:22.916Z,68.62
2022-09-10T11:11:37.983Z,68.70
2022-09-10T11:14:45.284Z,67.47
2022-09-10T11:17:51.041Z,67.97
2022-09-10T11:20:58.456Z,68.15
2022-09-10T11:24:03.982Z,68.06
2022-09-10T11:27:09.343Z,67.05
2022-09-10T11:37:15.052Z,65.34
2022-09-10T11:40:26.628Z,64.20
2022-09-10T11:43:41.867Z,64.19
2022-09-10T11:46:55.870Z,63.67
2022-09-10T11:50:01.733Z,63.63
2022-09-10T11:53:06.827Z,62.44
2022-09-10T11:56:27.489Z,62.21
2022-09-10T11:59:53.761Z,63.11
2022-09-10T12:03:12.932Z,63.63
2022-09-10T12:06:22.097Z,63.25
2022-09-10T12:09:32.231Z,63.42
2022-09-10T12:16:19.534Z,62.71
2022-09-10T12:19:26.481Z,63.00
2022-09-10T12:22:41.209Z,62.12
2022-09-10T12:25:46.469Z,61.80
2022-09-10T12:28:57.904Z,61.86
2022-09-10T12:32:27.965Z,61.30
2022-09-10T12:35:41.270Z,61.08
2022-09-10T12:38:50.767Z,61.33
2022-09-10T12:42:16.095Z,61.09
2022-09-10T12:45:36.249Z,61.69
2022-09-10T12:48:42.983Z,61.09
2022-09-10T12:51:56.564Z,61.43
2022-09-10T12:55:04.133Z,62.38
2022-09-10T12:58:11.944Z,62.50
2022-09-10T13:01:18.216Z,62.51
2022-09-10T13:04:24.188Z,62.57
2022-09-10T13:07:32.838Z,62.15
2022-09-10T13:10:36.369Z,61.46
2022-09-10T13:13:40.538Z,61.39
2022-09-10T13:16:43.370Z,61.90
2022-09-10T13:19:50.729Z,61.94
2022-09-10T13:22:58.164Z,63.05
2022-09-10T13:26:30.485Z,63.19
2022-09-10T13:29:34.939Z,62.48
2022-09-10T13:32:40.626Z,62.08
2022-09-10T13:35:55.537Z,60.65
2022-09-10T13:39:17.025Z,60.43
2022-09-10T13:42:31.279Z,59.63
2022-09-10T13:45:39.276Z,59.75
2022-09-10T13:48:45.566Z,58.93
2022-09-10T13:51:51.150Z,59.25
2022-09-10T13:54:55.967Z,57.20
2022-09-10T13:58:01.360Z,57.56
2022-09-10T14:01:04.916Z,57.46
2022-09-10T14:04:21.330Z,56.53
2022-09-10T14:07:26.160Z,56.08
2022-09-10T14:10:28.945Z,55.91
2022-09-10T14:13:34.823Z,56.01
2022-09-10T14:16:40.360Z,55.83
2022-09-10T14:19:48.598Z,55.80
2022-09-10T14:22:53.062Z,55.89
2022-09-10T14:26:09.416Z,56.74
2022-09-10T14:29:24.108Z,56.79
2022-09-10T14:32:28.331Z,55.45
2022-09-10T14:35:38.599Z,55.16
2022-09-10T14:38:42.111Z,54.94
2022-09-10T14:41:44.751Z,54.84
2022-09-10T14:44:49.981Z,55.11
2022-09-10T14:47:53.808Z,54.78
2022-09-10T14:51:17.337Z,53.23
2022-09-10T14:54:20.208Z,52.85
2022-09-10T14:57:22.813Z,53.88
2022-09-10T15:00:25.906Z,54.73
2022-09-10T15:03:28.720Z,55.33
2022-09-10T15:06:31.414Z,55.88
2022-09-10T15:09:34.090Z,57.05
2022-09-10T15:12:39.228Z,57.63
2022-09-10T15:15:41.843Z,56.97
2022-09-10T15:18:44.597Z,55.99
2022-09-10T15:21:47.206Z,56.04
2022-09-10T15:25:08.654Z,55.41
2022-09-10T15:28:12.366Z,54.87
2022-09-10T15:31:16.754Z,54.95
2022-09-10T15:34:19.563Z,54.73
2022-09-10T15:37:22.495Z,55.90
2022-09-10T15:40:25.017Z,56.77
2022-09-10T15:43:27.605Z,58.65
2022-09-10T15:46:30.369Z,59.32
2022-09-10T15:49:34.675Z,61.19
2022-09-10T15:52:37.483Z,61.59
2022-09-10T15:55:40.191Z,62.26
2022-09-10T15:58:47.192Z,62.45
2022-09-10T16:01:49.941Z,62.33
2022-09-10T16:04:53.283Z,62.36
2022-09-10T16:07:56.050Z,62.71
2022-09-10T16:10:59.351Z,63.09
2022-09-10T16:14:04.762Z,62.97
2022-09-10T16:17:09.974Z,63.63
2022-09-10T16:20:12.507Z,64.84
2022-09-10T16:23:16.527Z,66.04
2022-09-10T16:26:20.421Z,66.96
2022-09-10T16:29:23.055Z,68.44
2022-09-10T16:32:25.732Z,69.75
2022-09-10T16:35:28.405Z,71.08
2022-09-10T16:38:31.938Z,71.76
2022-09-10T16:41:34.739Z,73.15
2022-09-10T16:44:38.117Z,74.07
2022-09-10T16:47:40.936Z,74.99
2022-09-10T16:50:43.597Z,75.50
2022-09-10T16:53:48.113Z,75.98
2022-09-10T16:56:50.818Z,76.90
2022-09-10T16:59:53.597Z,77.56
2022-09-10T17:02:58.552Z,78.32
2022-09-10T17:06:01.375Z,78.95
2022-09-10T17:09:04.284Z,79.50
2022-09-10T17:12:09.856Z,79.55
2022-09-10T17:15:12.484Z,80.35
2022-09-10T17:18:16.022Z,80.78
2022-09-10T17:21:21.017Z,81.28
2022-09-10T17:24:26.854Z,81.76
2022-09-10T17:27:30.320Z,82.65
2022-09-10T17:30:32.990Z,83.35
2022-09-10T17:33:35.846Z,83.87
2022-09-10T17:36:39.394Z,84.04
2022-09-10T17:39:42.081Z,84.72
2022-09-10T17:42:45.061Z,85.74
2022-09-10T17:45:47.675Z,86.09
2022-09-10T17:48:50.821Z,86.88
2022-09-10T17:51:53.559Z,87.81
2022-09-10T17:54:57.158Z,87.82
2022-09-10T17:58:00.084Z,88.91
2022-09-10T18:01:05.394Z,89.23
2022-09-10T18:04:12.076Z,89.62
2022-09-10T18:07:14.748Z,89.67
2022-09-10T18:10:17.687Z,90.15
2022-09-10T18:13:20.426Z,90.96
2022-09-10T18:16:24.164Z,91.01
2022-09-10T18:19:27.463Z,91.03
2022-09-10T18:22:30.072Z,91.04
2022-09-10T18:25:32.947Z,91.41
2022-09-10T18:28:35.652Z,91.94
2022-09-10T18:31:39.114Z,92.14
2022-09-10T18:34:42.763Z,92.54
2022-09-10T18:37:49.447Z,92.81
2022-09-10T18:40:52.123Z,92.92
2022-09-10T18:43:58.900Z,93.05
2022-09-10T18:47:01.853Z,92.70
2022-09-10T18:50:06.149Z,92.53
2022-09-10T18:53:09.240Z,93.13
2022-09-10T18:56:13.080Z,93.10
2022-09-10T18:59:19.466Z,93.36
2022-09-10T19:02:22.481Z,93.43
2022-09-10T19:05:25.201Z,93.54
2022-09-10T19:08:27.967Z,93.62
2022-09-10T19:11:32.750Z,93.94
2022-09-10T19:14:35.590Z,94.21
2022-09-10T19:17:38.334Z,94.22
2022-09-10T19:20:40.981Z,94.61
2022-09-10T19:23:44.492Z,93.79
2022-09-10T19:26:47.243Z,94.78
2022-09-10T19:29:50.389Z,95.09
2022-09-10T19:32:53.762Z,95.15
2022-09-10T19:35:56.770Z,94.86
2022-09-10T19:39:01.274Z,94.87
2022-09-10T19:42:06.720Z,94.83
2022-09-10T19:45:10.775Z,95.34
2022-09-10T19:48:13.726Z,95.37
2022-09-10T19:51:18.500Z,95.66
2022-09-10T19:54:22.069Z,95.94
2022-09-10T19:57:24.848Z,95.93
2022-09-10T20:00:45.930Z,96.20
2022-09-10T20:03:50.180Z,96.56
2022-09-10T20:06:53.226Z,96.17
2022-09-10T20:09:55.992Z,96.80
2022-09-10T20:12:58.575Z,96.86
2022-09-10T20:16:02.080Z,97.20
2022-09-10T20:19:05.296Z,97.12
2022-09-10T20:22:07.987Z,97.01
2022-09-10T20:25:10.850Z,97.33
2022-09-10T20:28:13.821Z,97.71
2022-09-10T20:31:16.860Z,97.50
2022-09-10T20:34:20.794Z,97.85
2022-09-10T20:37:24.282Z,97.77
2022-09-10T20:40:27.111Z,98.05
2022-09-10T20:43:29.834Z,97.83
2022-09-10T20:46:33.792Z,97.37
2022-09-10T20:49:36.486Z,96.76
2022-09-10T20:52:39.421Z,97.44
2022-09-10T20:55:42.465Z,97.97
2022-09-10T20:58:48.596Z,98.33
2022-09-10T21:01:51.907Z,98.86
2022-09-10T21:04:54.979Z,98.31
2022-09-10T21:07:58.636Z,97.91
2022-09-10T21:11:02.455Z,98.48
2022-09-10T21:14:06.453Z,98.81
2022-09-10T21:17:09.522Z,98.73
2022-09-10T21:20:12.951Z,98.62
2022-09-10T21:23:16.309Z,98.69
2022-09-10T21:26:20.134Z,99.27
2022-09-10T21:29:23.858Z,98.57
2022-09-10T21:32:26.787Z,98.63
2022-09-10T21:35:30.522Z,98.76
2022-09-10T21:38:34.974Z,98.79
2022-09-10T21:41:39.455Z,99.08
2022-09-10T21:44:42.102Z,98.66
2022-09-10T21:47:44.991Z,99.03
2022-09-10T21:50:47.865Z,99.36
2022-09-10T21:53:52.506Z,99.41
2022-09-10T21:56:55.417Z,99.37
2022-09-10T21:59:58.232Z,100.00
2022-09-10T22:03:01.021Z,100.00
2022-09-10T22:06:04.663Z,100.00
2022-09-10T22:09:09.301Z,100.00
2022-09-10T22:12:12.089Z,100.00
2022-09-10T22:15:15.422Z,100.00
2022-09-10T22:18:19.875Z,100.00
2022-09-10T22:21:22.908Z,100.00
2022-09-10T22:24:25.838Z,100.00
2022-09-10T22:27:28.552Z,100.00
2022-09-10T22:30:31.383Z,100.00
2022-09-10T22:33:34.533Z,100.00
2022-09-10T22:36:37.975Z,100.00
2022-09-10T22:39:40.902Z,100.00
2022-09-10T22:42:43.832Z,100.00
2022-09-10T22:45:46.591Z,100.00
2022-09-10T22:48:49.250Z,100.00
2022-09-10T22:51:52.288Z,100.00
2022-09-10T22:54:56.943Z,100.00
2022-09-10T22:57:59.751Z,100.00
2022-09-10T23:01:07.437Z,100.00
2022-09-10T23:04:11.237Z,100.00
2022-09-10T23:07:14.244Z,100.00
2022-09-10T23:10:17.563Z,100.00
2022-09-10T23:13:20.459Z,100.00
2022-09-10T23:16:24.135Z,100.00
2022-09-10T23:19:28.800Z,100.00
2022-09-10T23:22:32.073Z,100.00
2022-09-10T23:25:35.647Z,100.00
2022-09-10T23:28:38.536Z,100.00
2022-09-10T23:31:41.202Z,100.00
2022-09-10T23:34:44.569Z,100.00
2022-09-10T23:37:51.553Z,100.00
2022-09-10T23:40:55.472Z,100.00
2022-09-10T23:43:58.264Z,100.00
2022-09-10T23:47:00.878Z,100.00
2022-09-10T23:50:05.492Z,100.00
2022-09-10T23:53:08.630Z,100.00
2022-09-10T23:56:11.301Z,100.00
2022-09-10T23:59:14.727Z,100.00
